createdAt,value
2018-09-20T00:03:34.981Z,18.90
2018-09-20T00:07:43.714Z,19.00
2018-09-20T00:11:51.992Z,19.00
2018-09-20T00:16:00.256Z,18.90
2018-09-20T00:20:08.544Z,18.90
2018-09-20T00:24:16.881Z,18.90
2018-09-20T00:28:25.159Z,18.80
2018-09-20T00:32:33.501Z,18.80
2018-09-20T00:36:41.788Z,18.80
2018-09-20T00:40:50.091Z,18.70
2018-09-20T00:44:58.352Z,18.80
2018-09-20T00:49:06.676Z,18.70
2018-09-20T00:53:15.032Z,18.70
2018-09-20T00:57:23.320Z,18.60
2018-09-20T01:01:31.632Z,18.60
2018-09-20T01:05:39.889Z,18.50
2018-09-20T01:09:48.200Z,18.50
2018-09-20T01:18:04.497Z,18.40
2018-09-20T01:22:12.850Z,18.20
2018-09-20T01:26:21.136Z,18.30
2018-09-20T01:30:29.405Z,18.20
2018-09-20T01:34:37.743Z,18.20
2018-09-20T01:38:46.113Z,18.20
2018-09-20T01:42:54.411Z,18.20
2018-09-20T01:47:02.814Z,18.20
2018-09-20T01:51:11.089Z,18.20
2018-09-20T01:55:19.455Z,18.20
2018-09-20T01:59:27.713Z,18.10
2018-09-20T02:03:36.003Z,18.10
2018-09-20T02:07:44.340Z,18.00
2018-09-20T02:11:52.638Z,18.20
2018-09-20T02:16:01.002Z,18.00
2018-09-20T02:20:09.331Z,17.90
2018-09-20T02:24:17.743Z,18.00
2018-09-20T02:28:26.327Z,18.00
2018-09-20T02:32:34.612Z,17.90
2018-09-20T02:36:42.945Z,17.90
2018-09-20T02:40:51.236Z,17.90
2018-09-20T02:44:59.640Z,17.90
2018-09-20T02:49:07.974Z,17.80
2018-09-20T02:53:16.427Z,17.90
2018-09-20T02:57:24.767Z,17.90
2018-09-20T03:05:41.244Z,17.70
2018-09-20T03:09:49.508Z,17.70
2018-09-20T03:13:57.844Z,17.70
2018-09-20T03:18:06.151Z,17.70
2018-09-20T03:22:14.650Z,17.70
2018-09-20T03:26:22.946Z,17.70
2018-09-20T03:30:31.400Z,17.70
2018-09-20T03:34:39.683Z,17.60
2018-09-20T03:38:48.014Z,17.60
2018-09-20T03:42:56.281Z,17.50
2018-09-20T03:47:04.635Z,17.50
2018-09-20T03:51:13.241Z,17.40
2018-09-20T03:55:21.621Z,17.40
2018-09-20T03:59:29.937Z,17.50
2018-09-20T04:03:38.209Z,17.40
2018-09-20T04:07:46.639Z,17.40
2018-09-20T04:11:54.916Z,17.30
2018-09-20T04:16:03.252Z,17.40
2018-09-20T04:20:11.525Z,17.60
2018-09-20T04:24:19.911Z,17.40
2018-09-20T04:28:28.214Z,17.40
2018-09-20T04:36:44.546Z,17.30
2018-09-20T04:40:52.905Z,17.50
2018-09-20T04:45:01.220Z,17.50
2018-09-20T04:49:09.523Z,17.40
2018-09-20T04:53:17.817Z,17.40
2018-09-20T04:57:26.288Z,17.30
2018-09-20T05:01:34.604Z,17.20
2018-09-20T05:05:42.948Z,17.20
2018-09-20T05:09:51.326Z,17.30
2018-09-20T05:13:59.609Z,17.10
2018-09-20T05:18:07.898Z,17.10
2018-09-20T05:22:16.185Z,17.10
2018-09-20T05:26:24.653Z,17.00
2018-09-20T05:30:33.063Z,17.00
2018-09-20T05:34:41.391Z,16.90
2018-09-20T05:38:49.681Z,16.90
2018-09-20T05:42:58.030Z,16.90
2018-09-20T05:47:06.333Z,17.00
2018-09-20T05:51:14.637Z,16.90
2018-09-20T05:55:23.011Z,16.90
2018-09-20T05:59:31.358Z,17.00
2018-09-20T06:03:39.648Z,16.90
2018-09-20T06:07:47.933Z,16.90
2018-09-20T06:11:56.312Z,17.00
2018-09-20T06:16:04.669Z,17.00
2018-09-20T06:20:12.970Z,17.10
2018-09-20T06:24:22.166Z,17.20
2018-09-20T06:28:30.505Z,17.40
2018-09-20T06:32:38.855Z,17.50
2018-09-20T06:36:47.172Z,17.60
2018-09-20T06:40:55.567Z,17.60
2018-09-20T06:45:03.938Z,17.70
2018-09-20T06:49:12.419Z,17.80
2018-09-20T06:53:20.719Z,17.90
2018-09-20T06:57:33.269Z,17.90
2018-09-20T07:01:41.610Z,18.10
2018-09-20T07:05:49.922Z,18.30
2018-09-20T07:09:58.284Z,18.40
2018-09-20T07:14:06.585Z,18.60
2018-09-20T07:18:14.953Z,18.70
2018-09-20T07:22:23.422Z,18.80
2018-09-20T07:26:31.844Z,18.90
2018-09-20T07:30:40.166Z,19.00
2018-09-20T07:34:48.426Z,19.20
2018-09-20T07:38:56.816Z,19.30
2018-09-20T07:43:05.229Z,19.40
2018-09-20T07:47:13.638Z,19.50
2018-09-20T07:51:21.971Z,19.60
2018-09-20T07:55:31.039Z,19.80
2018-09-20T07:59:39.388Z,19.90
2018-09-20T08:03:47.663Z,20.10
2018-09-20T08:07:56.084Z,20.20
2018-09-20T08:12:04.381Z,20.30
2018-09-20T08:16:12.715Z,20.40
2018-09-20T08:20:21.203Z,20.50
2018-09-20T08:24:29.543Z,20.60
2018-09-20T08:28:37.833Z,20.70
2018-09-20T08:32:46.121Z,20.80
2018-09-20T08:36:54.521Z,20.80
2018-09-20T08:41:02.786Z,20.70
2018-09-20T08:45:11.223Z,20.80
2018-09-20T08:49:19.514Z,20.90
2018-09-20T08:53:27.849Z,21.20
2018-09-20T08:57:50.773Z,21.30
2018-09-20T09:01:59.104Z,21.50
2018-09-20T09:06:07.351Z,21.70
2018-09-20T09:10:15.636Z,21.90
2018-09-20T09:14:23.994Z,22.10
2018-09-20T09:18:32.367Z,22.30
2018-09-20T09:22:40.647Z,22.40
2018-09-20T09:26:48.953Z,22.60
2018-09-20T09:30:57.289Z,22.50
2018-09-20T09:35:05.593Z,22.70
2018-09-20T09:39:14.039Z,22.80
2018-09-20T09:43:22.412Z,22.80
2018-09-20T09:47:30.757Z,22.80
2018-09-20T09:51:39.080Z,22.90
2018-09-20T09:55:47.420Z,23.10
2018-09-20T09:59:55.858Z,23.20
2018-09-20T10:04:04.114Z,23.20
2018-09-20T10:08:12.442Z,23.10
2018-09-20T10:12:20.776Z,23.10
2018-09-20T10:16:29.072Z,23.20
2018-09-20T10:20:37.368Z,23.50
2018-09-20T10:24:45.662Z,23.60
2018-09-20T10:28:54.604Z,23.90
2018-09-20T10:33:02.929Z,23.90
2018-09-20T10:37:11.236Z,23.80
2018-09-20T10:41:19.547Z,23.70
2018-09-20T10:45:27.932Z,23.60
2018-09-20T10:49:36.326Z,23.70
2018-09-20T10:53:44.620Z,23.80
2018-09-20T10:57:52.922Z,23.80
2018-09-20T11:02:01.175Z,23.60
2018-09-20T11:06:09.510Z,23.50
2018-09-20T11:10:17.725Z,23.50
2018-09-20T11:14:26.063Z,23.50
2018-09-20T11:18:34.378Z,23.60
2018-09-20T11:22:42.704Z,23.90
2018-09-20T11:26:50.955Z,24.30
2018-09-20T11:30:59.258Z,24.40
2018-09-20T11:35:08.397Z,24.30
2018-09-20T11:39:16.675Z,24.20
2018-09-20T11:43:24.980Z,24.20
2018-09-20T11:47:33.331Z,24.30
2018-09-20T11:51:41.677Z,24.70
2018-09-20T11:55:49.961Z,24.90
2018-09-20T11:59:58.276Z,25.10
2018-09-20T12:04:06.772Z,25.20
2018-09-20T12:08:15.050Z,25.30
2018-09-20T12:12:23.385Z,25.40
2018-09-20T12:16:31.637Z,25.40
2018-09-20T12:20:40.011Z,25.30
2018-09-20T12:24:48.307Z,25.40
2018-09-20T12:28:56.562Z,25.30
2018-09-20T12:33:04.960Z,25.30
2018-09-20T12:37:13.267Z,25.10
2018-09-20T12:41:21.602Z,25.00
2018-09-20T12:45:29.886Z,24.90
2018-09-20T12:49:38.281Z,25.00
2018-09-20T12:53:46.592Z,25.10
2018-09-20T12:57:54.939Z,25.00
2018-09-20T13:02:03.797Z,24.90
2018-09-20T13:06:12.112Z,24.90
2018-09-20T13:10:20.413Z,25.20
2018-09-20T13:14:28.702Z,25.20
2018-09-20T13:18:37.043Z,25.30
2018-09-20T13:22:45.313Z,25.60
2018-09-20T13:26:53.648Z,25.70
2018-09-20T13:31:01.973Z,25.70
2018-09-20T13:39:18.328Z,25.80
2018-09-20T13:43:26.655Z,25.90
2018-09-20T13:47:35.069Z,25.80
2018-09-20T13:51:43.385Z,25.80
2018-09-20T13:59:59.777Z,26.10
2018-09-20T14:04:08.158Z,26.10
2018-09-20T14:12:24.534Z,26.00
2018-09-20T14:16:32.811Z,26.10
2018-09-20T14:20:41.083Z,26.10
2018-09-20T14:24:49.374Z,26.10
2018-09-20T14:28:57.661Z,26.10
2018-09-20T14:33:06.188Z,26.10
2018-09-20T14:37:14.413Z,26.10
2018-09-20T14:41:22.710Z,26.00
2018-09-20T14:45:30.981Z,26.10
2018-09-20T14:49:39.350Z,26.00
2018-09-20T14:53:47.593Z,26.00
2018-09-20T14:57:55.941Z,26.20
2018-09-20T15:02:04.311Z,26.10
2018-09-20T15:06:12.594Z,26.10
2018-09-20T15:10:20.824Z,26.10
2018-09-20T15:14:29.084Z,25.90
2018-09-20T15:18:37.402Z,26.00
2018-09-20T15:22:45.716Z,25.90
2018-09-20T15:26:54.167Z,25.80
2018-09-20T15:31:02.699Z,25.70
2018-09-20T15:35:11.026Z,25.70
2018-09-20T15:39:19.357Z,25.60
2018-09-20T15:43:27.650Z,25.60
2018-09-20T15:47:36.264Z,25.60
2018-09-20T15:51:44.546Z,25.50
2018-09-20T15:55:52.786Z,25.60
2018-09-20T16:00:01.099Z,25.50
2018-09-20T16:04:09.434Z,25.50
2018-09-20T16:08:17.743Z,25.40
2018-09-20T16:12:26.237Z,25.50
2018-09-20T16:16:34.579Z,25.30
2018-09-20T16:20:42.822Z,25.30
2018-09-20T16:24:51.211Z,25.30
2018-09-20T16:29:09.113Z,25.20
2018-09-20T16:33:36.143Z,25.10
2018-09-20T16:37:55.602Z,25.20
2018-09-20T16:42:04.562Z,24.90
2018-09-20T16:46:12.882Z,25.00
2018-09-20T16:50:21.237Z,24.90
2018-09-20T16:54:29.656Z,25.00
2018-09-20T16:58:38.064Z,24.90
2018-09-20T17:02:46.401Z,24.70
2018-09-20T17:06:54.692Z,24.60
2018-09-20T17:15:11.164Z,24.40
2018-09-20T17:23:27.575Z,24.10
2018-09-20T17:27:35.937Z,24.00
2018-09-20T17:31:44.327Z,24.00
2018-09-20T17:40:01.545Z,23.80
2018-09-20T17:44:10.336Z,23.70
2018-09-20T17:48:18.806Z,23.60
2018-09-20T17:52:27.479Z,23.50
2018-09-20T17:56:36.167Z,23.30
2018-09-20T18:00:44.647Z,23.20
2018-09-20T18:04:52.950Z,23.10
2018-09-20T18:09:01.240Z,23.00
2018-09-20T18:13:09.562Z,22.90
2018-09-20T18:17:17.939Z,22.80
2018-09-20T18:21:26.209Z,22.70
2018-09-20T18:25:34.533Z,22.60
2018-09-20T18:29:43.087Z,22.50
2018-09-20T18:33:51.416Z,22.30
2018-09-20T18:37:59.836Z,22.20
2018-09-20T18:42:08.113Z,22.10
2018-09-20T18:46:16.547Z,22.10
2018-09-20T18:50:24.931Z,22.00
2018-09-20T18:54:33.303Z,21.90
2018-09-20T18:58:41.606Z,21.80
2018-09-20T19:02:50.013Z,21.80
2018-09-20T19:06:58.274Z,21.70
2018-09-20T19:11:06.567Z,21.70
2018-09-20T19:19:23.323Z,21.70
2018-09-20T19:23:31.689Z,21.60
2018-09-20T19:27:40.072Z,21.60
2018-09-20T19:31:48.365Z,21.50
2018-09-20T19:35:56.658Z,21.60
2018-09-20T19:40:05.076Z,21.70
2018-09-20T19:44:13.591Z,21.80
2018-09-20T19:48:21.994Z,21.70
2018-09-20T19:52:30.312Z,21.70
2018-09-20T19:56:38.612Z,21.70
2018-09-20T20:00:46.999Z,21.70
2018-09-20T20:04:55.317Z,21.70
2018-09-20T20:09:05.944Z,21.60
2018-09-20T20:13:14.273Z,21.70
2018-09-20T20:17:22.581Z,21.80
2018-09-20T20:21:31.019Z,21.80
2018-09-20T20:25:39.359Z,21.70
2018-09-20T20:29:47.668Z,21.80
2018-09-20T20:33:56.341Z,21.70
2018-09-20T20:38:04.652Z,21.70
2018-09-20T20:42:13.133Z,21.50
2018-09-20T20:46:21.603Z,21.60
2018-09-20T20:50:29.941Z,21.60
2018-09-20T20:54:38.234Z,21.50
2018-09-20T20:58:46.553Z,21.40
2018-09-20T21:02:54.825Z,21.40
2018-09-20T21:07:03.205Z,21.30
2018-09-20T21:11:11.866Z,21.20
2018-09-20T21:15:20.173Z,21.30
2018-09-20T21:19:28.419Z,21.10
2018-09-20T21:23:36.704Z,21.00
2018-09-20T21:27:45.105Z,21.00
2018-09-20T21:31:53.374Z,20.90
2018-09-20T21:36:01.741Z,20.90
2018-09-20T21:40:10.051Z,20.80
2018-09-20T21:44:18.424Z,20.90
2018-09-20T21:48:26.712Z,20.80
2018-09-20T21:52:34.989Z,20.70
2018-09-20T21:56:43.369Z,20.70
2018-09-20T22:00:55.928Z,20.70
2018-09-20T22:05:04.312Z,20.70
2018-09-20T22:09:13.060Z,20.80
2018-09-20T22:13:21.428Z,20.70
2018-09-20T22:17:29.738Z,20.60
2018-09-20T22:21:38.003Z,20.60
2018-09-20T22:25:46.322Z,20.50
2018-09-20T22:29:54.782Z,20.40
2018-09-20T22:34:03.073Z,20.40
2018-09-20T22:38:11.396Z,20.40
2018-09-20T22:42:19.681Z,20.40
2018-09-20T22:46:28.051Z,20.40
2018-09-20T22:50:36.340Z,20.50
2018-09-20T22:54:44.680Z,20.50
2018-09-20T22:58:52.986Z,20.50
2018-09-20T23:03:01.264Z,20.60
2018-09-20T23:07:09.766Z,20.60
2018-09-20T23:11:18.010Z,20.80
2018-09-20T23:15:26.462Z,20.80
2018-09-20T23:19:34.723Z,20.80
2018-09-20T23:23:43.062Z,20.80
2018-09-20T23:27:51.390Z,20.80
2018-09-20T23:31:59.730Z,20.80
2018-09-20T23:36:08.048Z,20.80
2018-09-20T23:40:16.529Z,20.80
2018-09-20T23:44:24.916Z,20.80
2018-09-20T23:48:33.199Z,20.80
2018-09-20T23:52:41.599Z,20.70
2018-09-20T23:56:49.925Z,20.70
